createdAt,value
2015-12-02T00:00:56.965Z,6.2
2015-12-02T00:01:59.016Z,6.2
2015-12-02T00:04:03.177Z,6.2
2015-12-02T00:06:06.963Z,6.2
2015-12-02T00:08:11.063Z,6.3
2015-12-02T00:09:13.127Z,6.3
2015-12-02T00:10:15.162Z,6.3
2015-12-02T00:11:17.228Z,6.3
2015-12-02T00:12:19.277Z,6.3
2015-12-02T00:13:21.577Z,6.3
2015-12-02T00:14:23.939Z,6.3
2015-12-02T00:15:25.707Z,6.3
2015-12-02T00:16:27.991Z,6.3
2015-12-02T00:17:30.291Z,6.3
2015-12-02T00:18:32.606Z,6.3
2015-12-02T00:19:34.905Z,6.3
2015-12-02T00:20:37.237Z,6.3
2015-12-02T00:21:39.521Z,6.3
2015-12-02T00:23:44.164Z,6.3
2015-12-02T00:24:46.511Z,6.3
2015-12-02T00:25:48.249Z,6.3
2015-12-02T00:27:52.864Z,6.3
2015-12-02T00:28:55.178Z,6.3
2015-12-02T00:29:57.480Z,6.3
2015-12-02T00:30:59.796Z,6.3
2015-12-02T00:32:02.096Z,6.3
2015-12-02T00:33:04.411Z,6.3
2015-12-02T00:34:06.727Z,6.3
2015-12-02T00:35:09.104Z,6.3
2015-12-02T00:36:10.841Z,6.3
2015-12-02T00:37:13.141Z,6.3
2015-12-02T00:38:15.441Z,6.3
2015-12-02T00:39:17.756Z,6.3
2015-12-02T00:41:22.385Z,6.3
2015-12-02T00:42:24.685Z,6.3
2015-12-02T00:43:26.984Z,6.4
2015-12-02T00:44:29.300Z,6.3
2015-12-02T00:45:31.661Z,6.3
2015-12-02T00:46:33.398Z,6.4
2015-12-02T00:47:35.716Z,6.3
2015-12-02T00:48:38.030Z,6.4
2015-12-02T00:49:40.377Z,6.4
2015-12-02T00:51:44.944Z,6.4
2015-12-02T00:52:47.243Z,6.3
2015-12-02T00:53:49.558Z,6.4
2015-12-02T00:54:51.873Z,6.3
2015-12-02T00:55:54.235Z,6.3
2015-12-02T00:56:55.972Z,6.4
2015-12-02T00:57:58.291Z,6.3
2015-12-02T00:59:00.591Z,6.4
2015-12-02T01:00:02.889Z,6.4
2015-12-02T01:02:07.519Z,6.3
2015-12-02T01:03:09.835Z,6.3
2015-12-02T01:04:12.135Z,6.4
2015-12-02T01:05:14.436Z,6.4
2015-12-02T01:06:16.813Z,6.4
2015-12-02T01:08:20.864Z,6.4
2015-12-02T01:09:23.163Z,6.3
2015-12-02T01:10:21.635Z,6.4
2015-12-02T01:11:23.935Z,6.4
2015-12-02T01:12:22.407Z,6.4
2015-12-02T01:13:24.737Z,6.4
2015-12-02T01:15:29.321Z,6.4
2015-12-02T01:16:31.698Z,6.4
2015-12-02T01:17:33.435Z,6.4
2015-12-02T01:18:35.751Z,6.4
2015-12-02T01:19:38.051Z,6.4
2015-12-02T01:20:40.365Z,6.4
2015-12-02T01:21:42.682Z,6.5
2015-12-02T01:23:47.294Z,6.5
2015-12-02T01:24:49.611Z,6.4
2015-12-02T01:25:51.941Z,6.4
2015-12-02T01:26:54.288Z,6.5
2015-12-02T01:27:56.012Z,6.5
2015-12-02T01:28:58.327Z,6.5
2015-12-02T01:30:00.626Z,6.5
2015-12-02T01:32:05.272Z,6.5
2015-12-02T01:34:09.855Z,6.5
2015-12-02T01:35:12.171Z,6.5
2015-12-02T01:36:14.502Z,6.5
2015-12-02T01:37:16.848Z,6.5
2015-12-02T01:38:18.601Z,6.5
2015-12-02T01:39:20.902Z,6.5
2015-12-02T01:40:23.201Z,6.5
2015-12-02T01:41:25.517Z,6.5
2015-12-02T01:42:27.832Z,6.5
2015-12-02T01:44:28.586Z,6.5
2015-12-02T01:45:27.057Z,6.5
2015-12-02T01:46:25.529Z,6.5
2015-12-02T01:47:24.031Z,6.5
2015-12-02T01:48:25.768Z,6.5
2015-12-02T01:49:24.256Z,6.5
2015-12-02T01:51:21.167Z,6.4
2015-12-02T01:52:19.889Z,6.4
2015-12-02T01:53:18.594Z,6.4
2015-12-02T01:54:17.316Z,6.5
2015-12-02T01:55:16.037Z,6.5
2015-12-02T01:57:13.542Z,6.5
2015-12-02T01:58:15.294Z,6.4
2015-12-02T01:59:14.189Z,6.4
2015-12-02T02:00:12.722Z,6.4
2015-12-02T02:02:10.149Z,6.5
2015-12-02T02:05:06.313Z,6.5
2015-12-02T02:06:05.020Z,6.5
2015-12-02T02:07:03.819Z,6.5
2015-12-02T02:08:05.540Z,6.4
2015-12-02T02:09:04.262Z,6.4
2015-12-02T02:10:02.969Z,6.4
2015-12-02T02:11:01.688Z,6.4
2015-12-02T02:13:02.164Z,6.4
2015-12-02T02:13:57.854Z,6.4
2015-12-02T02:14:56.826Z,6.4
2015-12-02T02:15:55.548Z,6.4
2015-12-02T02:16:54.581Z,6.4
2015-12-02T02:17:56.318Z,6.4
2015-12-02T02:18:55.553Z,6.4
2015-12-02T02:19:54.792Z,6.4
2015-12-02T02:20:54.013Z,6.4
2015-12-02T02:21:53.251Z,6.4
2015-12-02T02:22:52.470Z,6.4
2015-12-02T02:24:53.977Z,6.4
2015-12-02T02:25:50.164Z,6.4
2015-12-02T02:26:49.451Z,6.4
2015-12-02T02:27:51.188Z,6.4
2015-12-02T02:28:50.422Z,6.4
2015-12-02T02:29:49.660Z,6.4
2015-12-02T02:30:51.913Z,6.4
2015-12-02T02:31:48.133Z,6.4
2015-12-02T02:32:47.355Z,6.4
2015-12-02T02:33:46.577Z,6.4
2015-12-02T02:34:45.813Z,6.4
2015-12-02T02:35:45.053Z,6.4
2015-12-02T02:36:44.334Z,6.5
2015-12-02T02:37:46.087Z,6.5
2015-12-02T02:38:45.309Z,6.5
2015-12-02T02:39:47.577Z,6.5
2015-12-02T02:40:46.830Z,6.5
2015-12-02T02:42:42.244Z,6.5
2015-12-02T02:43:41.478Z,6.5
2015-12-02T02:44:43.731Z,6.5
2015-12-02T02:45:39.921Z,6.5
2015-12-02T02:46:39.237Z,6.5
2015-12-02T02:47:40.958Z,6.5
2015-12-02T02:48:40.179Z,6.5
2015-12-02T02:49:39.432Z,6.5
2015-12-02T02:50:38.656Z,6.5
2015-12-02T02:51:37.875Z,6.5
2015-12-02T02:52:40.143Z,6.5
2015-12-02T02:53:39.364Z,6.5
2015-12-02T02:55:34.792Z,6.5
2015-12-02T02:56:34.107Z,6.5
2015-12-02T02:57:35.846Z,6.5
2015-12-02T02:58:35.049Z,6.5
2015-12-02T03:00:33.540Z,6.5
2015-12-02T03:01:32.746Z,6.5
2015-12-02T03:02:35.013Z,6.5
2015-12-02T03:03:31.204Z,6.6
2015-12-02T03:04:30.441Z,6.5
2015-12-02T03:05:29.680Z,6.6
2015-12-02T03:06:28.945Z,6.6
2015-12-02T03:07:30.699Z,6.5
2015-12-02T03:08:29.921Z,6.6
2015-12-02T03:09:29.158Z,6.6
2015-12-02T03:10:28.395Z,6.6
2015-12-02T03:11:27.882Z,6.6
2015-12-02T03:12:30.151Z,6.6
2015-12-02T03:13:26.342Z,6.6
2015-12-02T03:14:25.827Z,6.6
2015-12-02T03:15:25.314Z,6.6
2015-12-02T03:16:24.865Z,6.6
2015-12-02T03:17:26.617Z,6.6
2015-12-02T03:18:26.073Z,6.6
2015-12-02T03:20:25.062Z,6.6
2015-12-02T03:21:24.817Z,6.6
2015-12-02T03:22:24.567Z,6.6
2015-12-02T03:23:24.305Z,6.6
2015-12-02T03:24:24.041Z,6.7
2015-12-02T03:25:23.763Z,6.7
2015-12-02T03:26:23.578Z,6.7
2015-12-02T03:27:25.300Z,6.7
2015-12-02T03:28:25.052Z,6.7
2015-12-02T03:29:24.807Z,6.7
2015-12-02T03:30:26.200Z,6.7
2015-12-02T03:31:25.043Z,6.7
2015-12-02T03:32:25.313Z,6.7
2015-12-02T03:33:25.566Z,6.7
2015-12-02T03:34:25.818Z,6.8
2015-12-02T03:35:26.071Z,6.8
2015-12-02T03:36:26.402Z,6.8
2015-12-02T03:38:28.347Z,6.8
2015-12-02T03:39:28.881Z,6.9
2015-12-02T03:40:29.399Z,6.9
2015-12-02T03:42:30.653Z,6.9
2015-12-02T03:43:31.437Z,6.9
2015-12-02T03:44:32.205Z,6.9
2015-12-02T03:45:32.957Z,6.9
2015-12-02T03:46:33.789Z,7
2015-12-02T03:47:35.528Z,7
2015-12-02T03:48:36.312Z,7
2015-12-02T03:49:37.064Z,7
2015-12-02T03:50:37.833Z,7
2015-12-02T03:51:38.600Z,7.1
2015-12-02T03:52:39.635Z,7.1
2015-12-02T03:53:40.638Z,7.1
2015-12-02T03:54:41.656Z,7.1
2015-12-02T03:56:43.784Z,7.1
2015-12-02T03:57:45.506Z,7.1
2015-12-02T03:58:46.525Z,7.1
2015-12-02T03:59:47.545Z,7.2
2015-12-02T04:00:48.594Z,7.2
2015-12-02T04:01:49.613Z,7.2
2015-12-02T04:02:50.880Z,7.2
2015-12-02T04:03:52.165Z,7.2
2015-12-02T04:04:53.434Z,7.2
2015-12-02T04:05:54.702Z,7.3
2015-12-02T04:06:56.048Z,7.3
2015-12-02T04:07:57.769Z,7.3
2015-12-02T04:08:59.069Z,7.3
2015-12-02T04:10:00.354Z,7.3
2015-12-02T04:11:01.606Z,7.3
2015-12-02T04:12:02.890Z,7.3
2015-12-02T04:13:04.158Z,7.3
2015-12-02T04:14:05.443Z,7.3
2015-12-02T04:15:06.727Z,7.3
2015-12-02T04:16:07.996Z,7.3
2015-12-02T04:18:11.077Z,7.4
2015-12-02T04:20:13.630Z,7.4
2015-12-02T04:21:14.914Z,7.5
2015-12-02T04:22:16.181Z,7.5
2015-12-02T04:23:17.466Z,7.5
2015-12-02T04:24:18.751Z,7.5
2015-12-02T04:25:20.020Z,7.5
2015-12-02T04:26:21.304Z,7.5
2015-12-02T04:30:26.938Z,7.7
2015-12-02T04:31:28.221Z,7.7
2015-12-02T04:32:29.490Z,7.7
2015-12-02T04:33:30.774Z,7.7
2015-12-02T04:34:32.307Z,7.7
2015-12-02T04:35:34.094Z,7.8
2015-12-02T04:36:35.894Z,7.8
2015-12-02T04:37:37.756Z,7.9
2015-12-02T04:38:39.493Z,7.9
2015-12-02T04:39:41.261Z,7.9
2015-12-02T04:40:43.077Z,8
2015-12-02T04:41:44.860Z,8
2015-12-02T04:42:46.660Z,8
2015-12-02T04:43:48.444Z,8
2015-12-02T04:44:50.243Z,8
2015-12-02T04:45:52.012Z,8.1
2015-12-02T04:46:53.812Z,8.1
2015-12-02T04:47:55.659Z,8.1
2015-12-02T04:48:57.396Z,8.1
2015-12-02T04:49:59.180Z,8.2
2015-12-02T04:51:00.964Z,8.2
2015-12-02T04:52:02.762Z,8.2
2015-12-02T04:53:04.563Z,8.3
2015-12-02T04:54:06.331Z,8.3
2015-12-02T04:55:08.116Z,8.3
2015-12-02T04:56:09.915Z,8.3
2015-12-02T04:57:11.699Z,8.4
2015-12-02T04:58:13.546Z,8.4
2015-12-02T05:00:17.080Z,8.5
2015-12-02T05:01:18.849Z,8.5
2015-12-02T05:02:20.633Z,8.5
2015-12-02T05:03:22.433Z,8.6
2015-12-02T05:04:24.482Z,8.6
2015-12-02T05:05:26.266Z,8.6
2015-12-02T05:06:28.051Z,8.7
2015-12-02T05:07:30.102Z,8.7
2015-12-02T05:08:31.932Z,8.7
2015-12-02T05:10:35.701Z,8.8
2015-12-02T05:11:37.751Z,8.8
2015-12-02T05:12:39.784Z,8.9
2015-12-02T05:13:41.818Z,8.9
2015-12-02T05:14:43.868Z,8.9
2015-12-02T05:15:45.906Z,8.9
2015-12-02T05:17:49.989Z,8.9
2015-12-02T05:18:52.101Z,8.9
2015-12-02T05:19:53.822Z,9
2015-12-02T05:20:55.856Z,9
2015-12-02T05:21:58.156Z,9.1
2015-12-02T05:23:00.456Z,9.1
2015-12-02T05:24:02.490Z,9.1
2015-12-02T05:25:04.774Z,9.1
2015-12-02T05:26:06.824Z,9.1
2015-12-02T05:27:08.873Z,9.1
2015-12-02T05:28:10.892Z,9.1
2015-12-02T05:29:12.988Z,9.1
2015-12-02T05:30:14.726Z,9.1
2015-12-02T05:31:16.775Z,9.2
2015-12-02T05:32:18.794Z,9.2
2015-12-02T05:34:22.875Z,9.2
2015-12-02T05:35:24.910Z,9.2
2015-12-02T05:36:26.975Z,9.3
2015-12-02T05:38:31.026Z,9.3
2015-12-02T05:39:33.123Z,9.3
2015-12-02T05:40:34.860Z,9.3
2015-12-02T05:41:36.881Z,9.3
2015-12-02T05:42:38.931Z,9.3
2015-12-02T05:43:40.965Z,9.3
2015-12-02T05:44:42.999Z,9.3
2015-12-02T05:46:46.817Z,9.4
2015-12-02T05:47:48.867Z,9.4
2015-12-02T05:48:50.885Z,9.4
2015-12-02T05:49:52.997Z,9.4
2015-12-02T05:50:54.703Z,9.4
2015-12-02T05:51:56.487Z,9.4
2015-12-02T05:52:58.271Z,9.5
2015-12-02T05:54:00.054Z,9.5
2015-12-02T05:56:03.606Z,9.5
2015-12-02T05:57:05.391Z,9.5
2015-12-02T05:58:07.190Z,9.5
2015-12-02T05:59:08.958Z,9.5
2015-12-02T06:00:10.789Z,9.5
2015-12-02T06:02:14.296Z,9.5
2015-12-02T06:03:16.079Z,9.5
2015-12-02T06:04:17.848Z,9.6
2015-12-02T06:05:19.632Z,9.6
2015-12-02T06:06:21.432Z,9.6
2015-12-02T06:07:23.185Z,9.6
2015-12-02T06:08:24.968Z,9.6
2015-12-02T06:09:26.753Z,9.7
2015-12-02T06:10:28.584Z,9.7
2015-12-02T06:11:30.321Z,9.7
2015-12-02T06:12:32.074Z,9.7
2015-12-02T06:13:33.857Z,9.7
2015-12-02T06:14:35.642Z,9.7
2015-12-02T06:15:37.410Z,9.7
2015-12-02T06:16:39.209Z,9.7
2015-12-02T06:17:40.993Z,9.7
2015-12-02T06:18:42.762Z,9.7
2015-12-02T06:19:44.546Z,9.7
2015-12-02T06:20:46.376Z,9.7
2015-12-02T06:21:48.083Z,9.7
2015-12-02T06:22:49.867Z,9.7
2015-12-02T06:23:51.634Z,9.7
2015-12-02T06:24:53.435Z,9.8
2015-12-02T06:26:57.002Z,9.8
2015-12-02T06:27:58.770Z,9.8
2015-12-02T06:29:00.539Z,9.8
2015-12-02T06:30:02.323Z,9.9
2015-12-02T06:31:04.153Z,9.8
2015-12-02T06:34:09.443Z,9.9
2015-12-02T06:35:10.960Z,9.9
2015-12-02T06:36:12.746Z,9.9
2015-12-02T06:37:14.514Z,9.9
2015-12-02T06:38:16.016Z,9.9
2015-12-02T06:39:17.549Z,9.9
2015-12-02T06:40:19.068Z,9.9
2015-12-02T06:41:20.634Z,9.9
2015-12-02T06:42:22.372Z,10
2015-12-02T06:43:23.641Z,9.9
2015-12-02T06:44:24.878Z,10
2015-12-02T06:46:27.413Z,10
2015-12-02T06:48:29.948Z,10
2015-12-02T06:49:31.201Z,10
2015-12-02T06:50:32.486Z,10
2015-12-02T06:51:33.788Z,10
2015-12-02T06:52:35.509Z,10
2015-12-02T06:53:36.778Z,10.1
2015-12-02T06:54:38.031Z,10.1
2015-12-02T06:55:39.299Z,10.1
2015-12-02T06:56:40.567Z,10.1
2015-12-02T06:57:41.835Z,10.1
2015-12-02T06:58:43.088Z,10.1
2015-12-02T06:59:44.355Z,10.1
2015-12-02T07:00:45.624Z,10.1
2015-12-02T07:01:46.706Z,10.1
2015-12-02T07:02:48.397Z,10.1
2015-12-02T07:03:49.415Z,10.1
2015-12-02T07:04:50.167Z,10.1
2015-12-02T07:05:51.170Z,10.1
2015-12-02T07:06:51.923Z,10.1
2015-12-02T07:07:52.675Z,10.1
2015-12-02T07:08:53.428Z,10.1
2015-12-02T07:09:54.181Z,10.2
2015-12-02T07:10:54.965Z,10.2
2015-12-02T07:11:55.733Z,10.1
2015-12-02T07:12:57.455Z,10.2
2015-12-02T07:14:58.959Z,10.2
2015-12-02T07:17:00.448Z,10.2
2015-12-02T07:18:01.201Z,10.2
2015-12-02T07:19:01.969Z,10.2
2015-12-02T07:20:02.706Z,10.2
2015-12-02T07:21:03.445Z,10.2
2015-12-02T07:22:04.260Z,10.2
2015-12-02T07:23:05.982Z,10.2
2015-12-02T07:24:06.469Z,10.2
2015-12-02T07:26:07.458Z,10.2
2015-12-02T07:27:07.975Z,10.2
2015-12-02T07:28:08.244Z,10.2
2015-12-02T07:29:08.466Z,10.2
2015-12-02T07:30:08.686Z,10.2
2015-12-02T07:31:08.957Z,10.2
2015-12-02T07:32:09.225Z,10.2
2015-12-02T07:33:10.946Z,10.3
2015-12-02T07:34:11.184Z,10.2
2015-12-02T07:35:11.421Z,10.2
2015-12-02T07:36:11.658Z,10.3
2015-12-02T07:37:11.910Z,10.3
2015-12-02T07:38:12.132Z,10.3
2015-12-02T07:39:12.369Z,10.3
2015-12-02T07:40:12.606Z,10.3
2015-12-02T07:41:12.859Z,10.2
2015-12-02T07:42:13.143Z,10.3
2015-12-02T07:43:14.864Z,10.3
2015-12-02T07:44:15.086Z,10.3
2015-12-02T07:45:15.323Z,10.3
2015-12-02T07:46:15.560Z,10.3
2015-12-02T07:47:15.797Z,10.3
2015-12-02T07:48:16.034Z,10.3
2015-12-02T07:49:16.271Z,10.3
2015-12-02T07:50:16.258Z,10.3
2015-12-02T07:51:16.839Z,10.3
2015-12-02T07:52:16.277Z,10.3
2015-12-02T07:53:17.983Z,10.3
2015-12-02T07:55:18.567Z,10.3
2015-12-02T07:58:17.621Z,10.3
2015-12-02T07:59:20.419Z,10.4
2015-12-02T08:02:16.560Z,10.4
2015-12-02T08:03:18.250Z,10.4
2015-12-02T08:05:19.100Z,10.4
2015-12-02T08:06:17.381Z,10.4
2015-12-02T08:07:17.111Z,10.4
2015-12-02T08:08:16.811Z,10.4
2015-12-02T08:09:16.558Z,10.4
2015-12-02T08:10:16.260Z,10.4
2015-12-02T08:11:17.417Z,10.4
2015-12-02T08:12:15.761Z,10.4
2015-12-02T08:13:17.480Z,10.4
2015-12-02T08:15:18.325Z,10.4
2015-12-02T08:16:16.640Z,10.4
2015-12-02T08:17:16.360Z,10.4
2015-12-02T08:19:16.958Z,10.4
2015-12-02T08:21:17.525Z,10.4
2015-12-02T08:22:14.012Z,10.5
2015-12-02T08:23:15.749Z,10.4
2015-12-02T08:25:14.661Z,10.5
2015-12-02T08:26:14.132Z,10.5
2015-12-02T08:27:16.637Z,10.5
2015-12-02T08:28:12.825Z,10.5
2015-12-02T08:29:12.032Z,10.4
2015-12-02T08:31:10.458Z,10.5
2015-12-02T08:32:09.726Z,10.4
2015-12-02T08:33:11.433Z,10.5
2015-12-02T08:35:12.893Z,10.4
2015-12-02T08:36:09.065Z,10.5
2015-12-02T08:37:08.286Z,10.5
2015-12-02T08:38:07.492Z,10.5
2015-12-02T08:39:06.699Z,10.5
2015-12-02T08:40:05.920Z,10.5
2015-12-02T08:41:05.126Z,10.5
2015-12-02T08:42:07.426Z,10.5
2015-12-02T08:43:06.117Z,10.5
2015-12-02T08:45:07.574Z,10.5
2015-12-02T08:46:03.749Z,10.5
2015-12-02T08:47:02.970Z,10.5
2015-12-02T08:48:02.176Z,10.5
2015-12-02T08:50:00.087Z,10.5
2015-12-02T08:52:01.343Z,10.5
2015-12-02T08:53:00.033Z,10.5
2015-12-02T08:53:58.724Z,10.5
2015-12-02T08:54:57.413Z,10.5
2015-12-02T08:55:56.119Z,10.6
2015-12-02T08:58:52.220Z,10.5
2015-12-02T08:59:50.909Z,10.6
2015-12-02T09:00:49.615Z,10.5
2015-12-02T09:01:48.102Z,10.5
2015-12-02T09:02:49.823Z,10.5
2015-12-02T09:03:48.265Z,10.5
2015-12-02T09:04:46.702Z,10.5
2015-12-02T09:05:45.159Z,10.5
2015-12-02T09:06:43.600Z,10.5
2015-12-02T09:07:42.290Z,10.5
2015-12-02T09:08:40.996Z,10.5
2015-12-02T09:09:39.687Z,10.5
2015-12-02T09:10:38.142Z,10.5
2015-12-02T09:11:36.629Z,10.6
2015-12-02T09:13:40.634Z,10.6
2015-12-02T09:14:42.918Z,10.6
2015-12-02T09:15:45.202Z,10.6
2015-12-02T09:16:47.502Z,10.6
2015-12-02T09:17:49.786Z,10.5
2015-12-02T09:19:54.354Z,10.6
2015-12-02T09:20:56.639Z,10.6
2015-12-02T09:21:58.984Z,10.6
2015-12-02T09:23:00.707Z,10.6
2015-12-02T09:24:02.990Z,10.6
2015-12-02T09:25:05.275Z,10.6
2015-12-02T09:26:07.559Z,10.6
2015-12-02T09:27:09.859Z,10.6
2015-12-02T09:29:14.424Z,10.7
2015-12-02T09:30:16.709Z,10.6
2015-12-02T09:31:18.993Z,10.6
2015-12-02T09:32:21.340Z,10.7
2015-12-02T09:33:23.060Z,10.7
2015-12-02T09:34:25.345Z,10.7
2015-12-02T09:35:27.381Z,10.7
2015-12-02T09:36:29.414Z,10.7
2015-12-02T09:37:31.183Z,10.7
2015-12-02T09:38:32.967Z,10.6
2015-12-02T09:39:34.736Z,10.7
2015-12-02T09:40:36.503Z,10.7
2015-12-02T09:41:38.287Z,10.7
2015-12-02T09:42:40.119Z,10.7
2015-12-02T09:43:41.841Z,10.6
2015-12-02T09:44:43.359Z,10.6
2015-12-02T09:45:45.127Z,10.6
2015-12-02T09:46:46.646Z,10.6
2015-12-02T09:47:47.898Z,10.6
2015-12-02T09:49:50.433Z,10.6
2015-12-02T09:50:51.686Z,10.6
2015-12-02T09:51:52.955Z,10.6
2015-12-02T09:52:54.271Z,10.6
2015-12-02T09:53:55.992Z,10.6
2015-12-02T09:54:57.244Z,10.6
2015-12-02T09:55:58.499Z,10.7
2015-12-02T09:56:59.767Z,10.7
2015-12-02T09:58:01.020Z,10.7
2015-12-02T09:59:02.288Z,10.7
2015-12-02T10:00:03.556Z,10.6
2015-12-02T10:01:04.809Z,10.7
2015-12-02T10:02:06.078Z,10.7
2015-12-02T10:03:07.393Z,10.7
2015-12-02T10:04:09.098Z,10.7
2015-12-02T10:05:10.117Z,10.7
2015-12-02T10:06:11.120Z,10.6
2015-12-02T10:07:12.139Z,10.6
2015-12-02T10:08:13.125Z,10.7
2015-12-02T10:09:14.159Z,10.7
2015-12-02T10:10:15.146Z,10.6
2015-12-02T10:11:16.149Z,10.7
2015-12-02T10:12:17.152Z,10.7
2015-12-02T10:13:18.201Z,10.7
2015-12-02T10:14:19.923Z,10.7
2015-12-02T10:16:21.410Z,10.7
2015-12-02T10:17:22.163Z,10.7
2015-12-02T10:18:22.916Z,10.7
2015-12-02T10:19:23.668Z,10.7
2015-12-02T10:20:24.405Z,10.7
2015-12-02T10:21:25.161Z,10.7
2015-12-02T10:22:25.913Z,10.7
2015-12-02T10:23:26.713Z,10.7
2015-12-02T10:24:28.435Z,10.7
2015-12-02T10:25:29.188Z,10.7
2015-12-02T10:26:29.924Z,10.7
2015-12-02T10:27:30.708Z,10.8
2015-12-02T10:28:31.430Z,10.7
2015-12-02T10:29:32.198Z,10.8
2015-12-02T10:30:32.935Z,10.8
2015-12-02T10:31:33.688Z,10.8
2015-12-02T10:32:34.441Z,10.8
2015-12-02T10:33:34.990Z,10.8
2015-12-02T10:34:36.712Z,10.8
2015-12-02T10:35:36.949Z,10.8
2015-12-02T10:36:37.185Z,10.8
2015-12-02T10:37:37.407Z,10.8
2015-12-02T10:38:37.644Z,10.7
2015-12-02T10:39:37.882Z,10.8
2015-12-02T10:40:38.135Z,10.8
2015-12-02T10:41:38.356Z,10.8
2015-12-02T10:42:38.593Z,10.8
2015-12-02T10:43:38.877Z,10.8
2015-12-02T10:44:40.598Z,10.8
2015-12-02T10:45:40.570Z,10.8
2015-12-02T10:46:40.573Z,10.8
2015-12-02T10:47:40.276Z,10.8
2015-12-02T10:48:39.997Z,10.8
2015-12-02T10:49:39.720Z,10.8
2015-12-02T10:51:39.413Z,10.8
2015-12-02T10:52:39.400Z,10.8
2015-12-02T10:53:39.418Z,10.9
2015-12-02T10:54:41.140Z,10.8
2015-12-02T10:56:42.255Z,10.9
2015-12-02T10:57:40.555Z,10.9
2015-12-02T10:58:43.323Z,10.9
2015-12-02T10:59:39.996Z,10.9
2015-12-02T11:00:39.719Z,10.9
2015-12-02T11:01:41.112Z,10.9
2015-12-02T11:02:39.427Z,10.9
2015-12-02T11:03:39.193Z,10.9
2015-12-02T11:05:40.638Z,10.9
2015-12-02T11:06:40.344Z,10.9
2015-12-02T11:07:40.065Z,10.9
2015-12-02T11:08:39.787Z,10.9
2015-12-02T11:09:39.259Z,10.9
2015-12-02T11:10:40.392Z,10.9
2015-12-02T11:11:38.439Z,10.9
2015-12-02T11:12:37.911Z,10.9
2015-12-02T11:13:40.461Z,10.9
2015-12-02T11:14:39.151Z,11
2015-12-02T11:15:38.357Z,11
2015-12-02T11:16:37.579Z,10.9
2015-12-02T11:17:36.769Z,11
2015-12-02T11:18:35.988Z,11
2015-12-02T11:19:35.196Z,11
2015-12-02T11:20:34.402Z,11
2015-12-02T11:21:33.593Z,11
2015-12-02T11:22:33.063Z,11
2015-12-02T11:23:32.598Z,11.1
2015-12-02T11:24:34.319Z,11
2015-12-02T11:25:33.526Z,11
2015-12-02T11:26:35.763Z,11
2015-12-02T11:27:34.966Z,11
2015-12-02T11:28:31.142Z,11
2015-12-02T11:29:30.348Z,11.1
2015-12-02T11:30:29.054Z,11
2015-12-02T11:31:27.744Z,11
2015-12-02T11:32:26.434Z,11
2015-12-02T11:33:25.187Z,11.1
2015-12-02T11:34:26.909Z,11
2015-12-02T11:35:25.596Z,11
2015-12-02T11:36:24.305Z,11
2015-12-02T11:38:21.683Z,11
2015-12-02T11:39:20.388Z,11
2015-12-02T11:41:17.769Z,11
2015-12-02T11:42:16.474Z,11
2015-12-02T11:43:15.227Z,11
2015-12-02T11:44:16.933Z,11
2015-12-02T11:45:15.374Z,11.1
2015-12-02T11:46:17.659Z,11
2015-12-02T11:47:16.096Z,11
2015-12-02T11:48:14.537Z,11
2015-12-02T11:49:16.805Z,11
2015-12-02T11:50:19.090Z,11
2015-12-02T11:51:17.530Z,11
2015-12-02T11:52:15.970Z,11.1
2015-12-02T11:53:14.473Z,11.1
2015-12-02T11:54:16.181Z,11.1
2015-12-02T11:55:18.465Z,11.1
2015-12-02T11:56:20.749Z,11.1
2015-12-02T11:58:25.051Z,11
2015-12-02T11:59:27.335Z,11.1
2015-12-02T12:00:29.619Z,11.1
2015-12-02T12:01:31.903Z,11.1
2015-12-02T12:02:34.187Z,11.1
2015-12-02T12:03:36.534Z,11.1
2015-12-02T12:04:38.240Z,11.1
2015-12-02T12:05:40.274Z,11.2
2015-12-02T12:06:42.292Z,11.1
2015-12-02T12:07:44.076Z,11.1
2015-12-02T12:08:45.833Z,11.2
2015-12-02T12:09:47.867Z,11.2
2015-12-02T12:10:49.900Z,11.2
2015-12-02T12:11:51.935Z,11.2
2015-12-02T12:12:53.954Z,11.2
2015-12-02T12:13:56.033Z,11.2
2015-12-02T12:15:59.523Z,11.2
2015-12-02T12:17:01.306Z,11.2
2015-12-02T12:18:02.809Z,11.2
2015-12-02T12:19:04.328Z,11.2
2015-12-02T12:20:05.846Z,11.2
2015-12-02T12:21:07.614Z,11.2
2015-12-02T12:22:09.385Z,11.3
2015-12-02T12:23:10.903Z,11.2
2015-12-02T12:24:12.218Z,11.2
2015-12-02T12:25:13.924Z,11.3
2015-12-02T12:27:16.192Z,11.2
2015-12-02T12:28:17.211Z,11.2
2015-12-02T12:29:17.947Z,11.3
2015-12-02T12:30:18.700Z,11.3
2015-12-02T12:31:19.453Z,11.2
2015-12-02T12:32:19.940Z,11.2
2015-12-02T12:33:20.427Z,11.2
2015-12-02T12:34:20.714Z,11.2
2015-12-02T12:35:22.435Z,11.2
2015-12-02T12:36:22.923Z,11.2
2015-12-02T12:37:23.160Z,11.2
2015-12-02T12:38:23.397Z,11.1
2015-12-02T12:39:23.618Z,11.2
2015-12-02T12:40:24.121Z,11.2
2015-12-02T12:41:24.857Z,11.2
2015-12-02T12:42:25.345Z,11.2
2015-12-02T12:43:25.582Z,11.2
2015-12-02T12:44:25.882Z,11.2
2015-12-02T12:45:27.588Z,11.2
2015-12-02T12:46:28.075Z,11.2
2015-12-02T12:47:28.312Z,11.2
2015-12-02T12:48:28.549Z,11.2
2015-12-02T12:49:28.786Z,11.2
2015-12-02T12:50:29.273Z,11.2
2015-12-02T12:51:29.510Z,11.2
2015-12-02T12:52:29.732Z,11.2
2015-12-02T12:53:29.969Z,11.2
2015-12-02T12:54:30.267Z,11.2
2015-12-02T12:55:31.974Z,11.2
2015-12-02T12:56:32.196Z,11.3
2015-12-02T12:58:32.169Z,11.2
2015-12-02T12:59:32.147Z,11.1
2015-12-02T13:00:32.134Z,11.2
2015-12-02T13:01:32.355Z,11.1
2015-12-02T13:02:32.327Z,11.2
2015-12-02T13:04:32.597Z,11.1
2015-12-02T13:05:34.319Z,11.2
2015-12-02T13:07:34.876Z,11.1
2015-12-02T13:08:33.988Z,11.2
2015-12-02T13:09:36.742Z,11.1
2015-12-02T13:10:33.180Z,11.1
2015-12-02T13:12:32.358Z,11.2
2015-12-02T13:13:31.830Z,11.2
2015-12-02T13:15:33.054Z,11.1
2015-12-02T13:16:32.260Z,11.1
2015-12-02T13:17:31.466Z,11.1
2015-12-02T13:18:30.685Z,11.1
2015-12-02T13:19:29.627Z,11.1
2015-12-02T13:20:28.834Z,11.1
2015-12-02T13:21:31.085Z,11.1
2015-12-02T13:28:24.042Z,11.1
2015-12-02T13:29:22.747Z,11
2015-12-02T13:30:21.438Z,11
2015-12-02T13:31:20.128Z,11
2015-12-02T13:32:18.834Z,11.1
2015-12-02T13:33:17.522Z,11.1
2015-12-02T13:34:16.277Z,11
2015-12-02T13:35:17.999Z,11
2015-12-02T13:36:17.047Z,11.1
2015-12-02T13:37:14.876Z,11
2015-12-02T13:38:17.163Z,11.1
2015-12-02T13:40:17.886Z,11
2015-12-02T13:41:19.920Z,11
2015-12-02T13:42:22.204Z,11
2015-12-02T13:43:24.488Z,11
2015-12-02T13:44:26.835Z,11
2015-12-02T13:45:28.540Z,11
2015-12-02T13:46:26.981Z,10.9
2015-12-02T13:47:25.437Z,10.9
2015-12-02T13:48:27.721Z,10.9
2015-12-02T13:49:29.490Z,10.9
2015-12-02T13:51:32.775Z,10.9
2015-12-02T13:52:34.559Z,10.9
2015-12-02T13:53:36.312Z,11
2015-12-02T13:54:38.158Z,10.9
2015-12-02T13:55:39.864Z,10.9
2015-12-02T13:57:43.152Z,10.9
2015-12-02T13:58:44.936Z,10.9
2015-12-02T13:59:46.705Z,10.9
2015-12-02T14:00:48.473Z,10.9
2015-12-02T14:01:50.240Z,10.9
2015-12-02T14:02:51.760Z,10.9
2015-12-02T14:03:53.278Z,10.9
2015-12-02T14:04:54.593Z,10.9
2015-12-02T14:05:56.299Z,10.9
2015-12-02T14:06:57.568Z,10.9
2015-12-02T14:07:58.570Z,10.9
2015-12-02T14:08:59.823Z,10.9
2015-12-02T14:10:01.342Z,10.9
2015-12-02T14:12:03.860Z,10.9
2015-12-02T14:13:05.379Z,10.9
2015-12-02T14:14:06.897Z,10.9
2015-12-02T14:15:08.212Z,10.9
2015-12-02T14:16:09.934Z,10.9
2015-12-02T14:17:11.187Z,10.9
2015-12-02T14:18:12.456Z,10.9
2015-12-02T14:19:13.710Z,10.9
2015-12-02T14:21:16.481Z,10.8
2015-12-02T14:22:17.750Z,10.8
2015-12-02T14:23:19.003Z,10.8
2015-12-02T14:24:19.755Z,10.8
2015-12-02T14:25:20.804Z,10.8
2015-12-02T14:26:22.526Z,10.8
2015-12-02T14:27:23.545Z,10.9
2015-12-02T14:28:24.797Z,10.8
2015-12-02T14:29:26.050Z,10.8
2015-12-02T14:30:27.053Z,10.8
2015-12-02T14:31:28.055Z,10.8
2015-12-02T14:32:29.058Z,10.8
2015-12-02T14:33:30.061Z,10.8
2015-12-02T14:35:32.127Z,10.7
2015-12-02T14:36:33.833Z,10.7
2015-12-02T14:37:35.118Z,10.8
2015-12-02T14:38:36.355Z,10.7
2015-12-02T14:39:37.624Z,10.7
2015-12-02T14:40:38.626Z,10.7
2015-12-02T14:41:39.894Z,10.7
2015-12-02T14:42:40.882Z,10.7
2015-12-02T14:43:42.151Z,10.7
2015-12-02T14:44:43.419Z,10.7
2015-12-02T14:45:44.733Z,10.7
2015-12-02T14:46:46.440Z,10.7
2015-12-02T14:47:47.959Z,10.7
2015-12-02T14:48:49.477Z,10.7
2015-12-02T14:49:50.730Z,10.7
2015-12-02T14:51:53.265Z,10.7
2015-12-02T14:53:55.786Z,10.7
2015-12-02T14:54:57.304Z,10.7
2015-12-02T14:55:58.870Z,10.7
2015-12-02T14:57:00.591Z,10.7
2015-12-02T14:58:02.111Z,10.7
2015-12-02T14:59:03.677Z,10.7
2015-12-02T15:00:04.882Z,10.7
2015-12-02T15:01:06.416Z,10.6
2015-12-02T15:02:07.935Z,10.6
2015-12-02T15:03:09.453Z,10.6
2015-12-02T15:04:11.222Z,10.6
2015-12-02T15:05:12.740Z,10.6
2015-12-02T15:06:14.571Z,10.6
2015-12-02T15:07:16.292Z,10.6
2015-12-02T15:08:18.060Z,10.6
2015-12-02T15:09:19.844Z,10.6
2015-12-02T15:10:21.613Z,10.6
2015-12-02T15:11:23.382Z,10.6
2015-12-02T15:12:25.166Z,10.6
2015-12-02T15:13:26.933Z,10.6
2015-12-02T15:14:28.702Z,10.5
2015-12-02T15:15:30.486Z,10.5
2015-12-02T15:16:32.316Z,10.5
2015-12-02T15:18:35.804Z,10.5
2015-12-02T15:19:37.825Z,10.5
2015-12-02T15:20:39.860Z,10.5
2015-12-02T15:21:41.894Z,10.5
2015-12-02T15:22:43.928Z,10.5
2015-12-02T15:23:45.946Z,10.5
2015-12-02T15:24:47.980Z,10.5
2015-12-02T15:25:50.280Z,10.5
2015-12-02T15:26:52.627Z,10.5